Time;durP1;ratioP1;P1;durP2;ratioP2;P2;SDS_P1;SDS_P2;PMS_P1;PMS_P2;Temp;Humidity;BMP_temperature;BMP_pressure;BME280_temperature;BME280_humidity;BME280_pressure;Samples;Min_cycle;Max_cycle;Signal;HPM_P1;HPM_P2
2022/12/28 00:01:25;;;;;;;21.15;7.65;;;5.70;99.90;;;;;;4986347;28;20485;-71
2022/12/28 00:03:52;;;;;;;21.00;8.23;;;5.60;99.90;;;;;;4991525;28;20042;-68
2022/12/28 00:06:19;;;;;;;21.02;9.32;;;5.70;99.90;;;;;;4992705;28;20042;-70
2022/12/28 00:08:46;;;;;;;20.65;8.68;;;5.70;99.90;;;;;;5008173;28;20048;-69
2022/12/28 00:11:17;;;;;;;25.63;9.02;;;5.70;99.90;;;;;;5005270;28;20045;-68
2022/12/28 00:13:43;;;;;;;26.85;8.30;;;5.70;99.90;;;;;;4990975;28;20385;-69
2022/12/28 00:16:28;;;;;;;21.58;8.95;;;5.70;99.90;;;;;;4990296;28;20033;-68
2022/12/28 00:18:55;;;;;;;20.67;9.05;;;5.70;99.90;;;;;;4974096;28;20053;-69
2022/12/28 00:21:20;;;;;;;24.88;9.13;;;5.70;99.90;;;;;;4988742;28;20065;-69
2022/12/28 00:23:51;;;;;;;20.13;8.95;;;5.80;99.90;;;;;;4991395;28;20562;-71
2022/12/28 00:26:18;;;;;;;17.15;9.10;;;5.80;99.90;;;;;;4983835;28;20034;-70
2022/12/28 00:28:43;;;;;;;29.30;10.15;;;5.70;99.90;;;;;;4987121;28;20415;-71
2022/12/28 00:31:09;;;;;;;19.85;8.98;;;5.70;99.90;;;;;;4989137;28;20041;-71
2022/12/28 00:33:35;;;;;;;24.67;9.80;;;5.70;99.90;;;;;;4993258;28;20045;-68
2022/12/28 00:36:01;;;;;;;22.08;9.35;;;5.80;99.90;;;;;;5007763;28;20117;-70
2022/12/28 00:38:30;;;;;;;28.45;9.30;;;5.80;99.90;;;;;;4993180;28;20045;-67
2022/12/28 00:40:56;;;;;;;24.23;9.52;;;5.70;99.90;;;;;;5008347;28;20117;-69
2022/12/28 00:43:22;;;;;;;20.05;8.93;;;5.80;99.90;;;;;;4989875;28;20056;-70
2022/12/28 00:45:48;;;;;;;20.60;8.73;;;5.80;99.90;;;;;;4992118;28;20034;-67
2022/12/28 00:48:14;;;;;;;31.52;9.68;;;5.80;99.90;;;;;;5002891;28;20042;-68
2022/12/28 00:50:41;;;;;;;24.15;8.80;;;5.80;99.90;;;;;;4995341;28;20053;-69
2022/12/28 00:53:06;;;;;;;25.33;8.65;;;5.70;99.90;;;;;;4987076;28;20123;-70
2022/12/28 00:55:33;;;;;;;21.27;8.90;;;5.70;99.90;;;;;;4988768;28;20065;-68
2022/12/28 00:57:59;;;;;;;25.60;8.98;;;5.70;99.90;;;;;;5002602;28;20547;-67
2022/12/28 01:00:25;;;;;;;22.33;9.13;;;5.80;99.90;;;;;;4983728;28;20030;-72
2022/12/28 01:02:51;;;;;;;22.40;9.77;;;5.80;99.90;;;;;;4985847;28;20052;-69
2022/12/28 01:05:17;;;;;;;24.98;8.85;;;5.80;99.90;;;;;;4986641;28;20061;-70
2022/12/28 01:07:42;;;;;;;27.95;9.68;;;5.70;99.90;;;;;;4987962;28;20044;-69
2022/12/28 01:10:08;;;;;;;23.23;9.80;;;5.70;99.90;;;;;;4987939;28;20058;-67
2022/12/28 01:12:34;;;;;;;22.00;9.40;;;5.80;99.90;;;;;;4987769;28;20081;-70
2022/12/28 01:15:00;;;;;;;22.08;9.77;;;5.80;99.90;;;;;;4988329;28;20086;-69
2022/12/28 01:17:25;;;;;;;21.02;9.88;;;5.80;99.90;;;;;;4991888;28;20040;-68
2022/12/28 01:19:51;;;;;;;23.20;9.90;;;5.90;99.90;;;;;;4991583;28;20064;-71
2022/12/28 01:22:16;;;;;;;21.02;9.23;;;5.80;99.90;;;;;;4988446;28;20069;-68
2022/12/28 01:24:43;;;;;;;21.20;9.50;;;5.90;99.90;;;;;;5008318;28;20056;-70
2022/12/28 01:27:09;;;;;;;31.98;10.88;;;5.80;99.90;;;;;;4989891;28;20046;-68
2022/12/28 01:29:34;;;;;;;26.60;10.40;;;5.80;99.90;;;;;;4993205;28;20052;-68
2022/12/28 01:32:00;;;;;;;24.90;10.18;;;5.90;99.90;;;;;;4989981;28;20487;-67
2022/12/28 01:34:25;;;;;;;22.02;9.93;;;5.90;99.90;;;;;;4990200;28;20075;-68
2022/12/28 01:36:51;;;;;;;23.50;10.32;;;5.90;99.90;;;;;;4991167;28;20045;-71
2022/12/28 01:39:17;;;;;;;24.85;10.00;;;6.00;99.90;;;;;;4993493;28;20044;-67
2022/12/28 01:41:42;;;;;;;22.00;9.40;;;5.90;99.90;;;;;;5008196;28;20096;-69
2022/12/28 01:44:09;;;;;;;24.42;9.75;;;6.00;99.90;;;;;;4990868;28;20073;-68
2022/12/28 01:46:48;;;;;;;28.20;10.32;;;6.00;99.90;;;;;;4989077;28;20056;-67
2022/12/28 01:49:35;;;;;;;21.50;9.77;;;5.90;99.90;;;;;;4988872;28;20045;-67
2022/12/28 01:52:12;;;;;;;25.63;9.65;;;6.00;99.90;;;;;;4985462;28;20042;-71
2022/12/28 01:54:45;;;;;;;23.15;9.27;;;6.00;99.90;;;;;;4992220;28;20034;-67
2022/12/28 01:57:12;;;;;;;20.27;9.48;;;6.10;99.90;;;;;;4988938;28;21423;-71
2022/12/28 01:59:45;;;;;;;20.85;9.35;;;6.00;99.90;;;;;;4987584;28;20042;-70
2022/12/28 02:02:13;;;;;;;26.48;9.13;;;6.10;99.90;;;;;;4987550;28;20542;-69
2022/12/28 02:04:39;;;;;;;30.95;9.48;;;6.00;99.90;;;;;;4989102;28;20046;-67
2022/12/28 02:07:04;;;;;;;28.02;10.50;;;6.10;99.90;;;;;;4989941;28;20053;-66
2022/12/28 02:09:40;;;;;;;24.35;9.75;;;6.00;99.90;;;;;;4991423;28;20045;-72
2022/12/28 02:12:08;;;;;;;29.85;10.25;;;6.20;99.90;;;;;;4988562;28;20654;-67
2022/12/28 02:14:34;;;;;;;28.73;10.50;;;6.10;99.90;;;;;;4992510;28;20092;-67
2022/12/28 02:17:00;;;;;;;24.95;9.70;;;6.00;99.90;;;;;;4989228;28;20046;-68
2022/12/28 02:19:46;;;;;;;22.38;10.43;;;6.20;99.90;;;;;;4987382;28;20522;-70
2022/12/28 02:22:34;;;;;;;25.33;10.50;;;6.20;99.90;;;;;;5003703;28;20329;-70
2022/12/28 02:25:12;;;;;;;25.75;10.73;;;6.10;99.90;;;;;;4991473;28;20030;-67
2022/12/28 02:27:43;;;;;;;28.00;11.00;;;6.10;99.90;;;;;;4989677;28;20081;-67
2022/12/28 02:30:11;;;;;;;26.10;10.65;;;6.10;99.90;;;;;;4991951;28;20084;-69
2022/12/28 02:32:45;;;;;;;23.85;10.63;;;6.10;99.90;;;;;;4990071;28;20140;-67
2022/12/28 02:35:14;;;;;;;26.88;11.68;;;6.10;99.90;;;;;;5005640;28;20073;-69
2022/12/28 02:37:50;;;;;;;25.27;11.07;;;6.20;99.90;;;;;;4990029;28;20050;-69
2022/12/28 02:40:25;;;;;;;24.23;11.00;;;6.20;99.90;;;;;;4987971;28;20465;-70
2022/12/28 02:42:53;;;;;;;24.48;10.77;;;6.20;99.90;;;;;;4990258;28;20378;-69
2022/12/28 02:52:07;;;;;;;28.27;10.65;;;6.20;99.90;;;;;;4985410;28;20056;-66
2022/12/28 02:57:54;;;;;;;24.60;11.38;;;6.20;99.90;;;;;;4989583;28;20124;-64
2022/12/28 03:00:24;;;;;;;29.90;11.25;;;6.20;99.90;;;;;;4990957;28;20034;-67
2022/12/28 03:03:14;;;;;;;27.77;10.77;;;6.20;99.90;;;;;;4989891;28;20046;-65
2022/12/28 03:09:00;;;;;;;24.50;10.85;;;6.20;99.90;;;;;;4990854;28;20092;-65
2022/12/28 03:11:37;;;;;;;26.38;11.35;;;6.40;99.90;;;;;;4982831;28;21946;-66
2022/12/28 03:14:09;;;;;;;30.95;11.18;;;6.40;99.90;;;;;;4991378;28;20423;-66
2022/12/28 03:31:06;;;;;;;25.77;11.25;;;6.40;99.90;;;;;;4986585;28;20057;-68
2022/12/28 03:33:48;;;;;;;28.15;10.40;;;6.40;99.90;;;;;;4988523;28;20190;-68
2022/12/28 03:36:24;;;;;;;26.25;10.95;;;6.50;99.90;;;;;;4979521;28;20572;-66
2022/12/28 03:39:18;;;;;;;26.63;10.07;;;6.40;99.90;;;;;;4988845;28;20050;-73
2022/12/28 03:41:50;;;;;;;22.83;10.40;;;6.60;99.90;;;;;;4988282;28;20045;-68
2022/12/28 03:44:31;;;;;;;21.27;10.05;;;6.50;99.90;;;;;;4990367;28;20050;-65
2022/12/28 03:47:10;;;;;;;22.45;10.30;;;6.60;99.90;;;;;;5002443;28;20044;-66
2022/12/28 03:49:37;;;;;;;23.40;10.88;;;6.50;99.90;;;;;;4989514;28;20176;-69
2022/12/28 03:52:04;;;;;;;24.85;10.23;;;6.60;99.90;;;;;;4988446;28;20042;-67
2022/12/28 03:54:29;;;;;;;23.77;10.07;;;6.60;99.90;;;;;;5004865;28;20048;-67
2022/12/28 03:56:55;;;;;;;22.50;9.98;;;6.50;99.90;;;;;;4982530;28;20677;-65
2022/12/28 03:59:20;;;;;;;19.98;9.73;;;6.60;99.90;;;;;;4988001;28;20261;-66
2022/12/28 04:01:46;;;;;;;25.05;10.23;;;6.60;99.90;;;;;;4986251;28;20026;-65
2022/12/28 04:04:12;;;;;;;22.85;10.13;;;6.70;99.90;;;;;;4989141;28;20040;-66
2022/12/28 04:06:37;;;;;;;23.58;10.18;;;6.60;99.90;;;;;;4986338;28;20056;-67
2022/12/28 04:09:04;;;;;;;23.98;10.07;;;6.60;99.90;;;;;;4990109;28;20512;-63
2022/12/28 04:11:30;;;;;;;22.88;9.18;;;6.70;99.90;;;;;;4976640;28;20072;-68
2022/12/28 04:13:56;;;;;;;21.27;9.30;;;6.70;99.90;;;;;;4989727;28;20041;-67
2022/12/28 04:16:21;;;;;;;20.90;9.73;;;6.80;99.90;;;;;;4988497;28;20122;-66
2022/12/28 04:18:47;;;;;;;22.15;9.52;;;6.80;99.90;;;;;;4992093;28;20033;-64
2022/12/28 04:21:13;;;;;;;19.90;9.35;;;6.80;99.90;;;;;;4991679;28;20504;-67
2022/12/28 04:23:39;;;;;;;20.17;9.43;;;6.80;99.90;;;;;;5006228;28;20048;-65
2022/12/28 04:26:08;;;;;;;18.65;9.68;;;6.80;99.90;;;;;;4988063;28;20393;-66
2022/12/28 04:28:34;;;;;;;18.73;8.82;;;6.80;99.90;;;;;;4986218;28;20065;-64
2022/12/28 04:31:01;;;;;;;19.35;9.40;;;6.80;99.90;;;;;;4989492;28;20041;-66
2022/12/28 04:33:27;;;;;;;17.92;8.93;;;6.90;99.90;;;;;;4985060;28;20107;-69
2022/12/28 04:35:53;;;;;;;19.80;9.35;;;6.80;99.90;;;;;;4969090;28;20088;-68
2022/12/28 04:38:19;;;;;;;20.00;9.07;;;7.00;99.90;;;;;;4983328;28;20041;-68
2022/12/28 04:40:45;;;;;;;23.58;9.95;;;7.00;99.90;;;;;;4985100;28;20140;-66
2022/12/28 04:43:11;;;;;;;23.38;10.23;;;6.90;99.90;;;;;;4982460;28;20129;-66
2022/12/28 04:45:37;;;;;;;22.52;10.02;;;7.10;99.90;;;;;;4983301;28;20711;-67
2022/12/28 04:48:03;;;;;;;22.02;10.10;;;7.00;99.90;;;;;;4990063;28;20061;-66
2022/12/28 04:50:29;;;;;;;26.70;10.68;;;7.00;99.90;;;;;;4990561;28;20041;-65
2022/12/28 04:52:54;;;;;;;23.20;10.52;;;7.00;99.90;;;;;;4988051;28;20346;-68
2022/12/28 04:55:20;;;;;;;25.23;11.00;;;7.10;99.90;;;;;;4987015;28;20033;-68
2022/12/28 04:57:46;;;;;;;23.70;10.75;;;7.10;99.90;;;;;;4987175;28;20054;-67
2022/12/28 05:00:13;;;;;;;26.13;12.32;;;7.20;99.90;;;;;;5005473;28;20041;-68
2022/12/28 05:02:39;;;;;;;26.45;12.40;;;7.10;99.90;;;;;;4987586;28;20042;-68
2022/12/28 05:05:06;;;;;;;25.75;11.73;;;7.10;99.90;;;;;;4988932;28;20048;-68
2022/12/28 05:07:31;;;;;;;29.40;12.45;;;7.10;99.90;;;;;;4986913;28;20080;-64
2022/12/28 05:09:57;;;;;;;23.52;11.60;;;7.30;99.90;;;;;;4988651;28;20042;-67
2022/12/28 05:12:22;;;;;;;26.48;12.00;;;7.30;99.90;;;;;;4985980;28;20484;-71
2022/12/28 05:14:48;;;;;;;24.83;12.40;;;7.20;99.90;;;;;;4986762;28;20174;-68
2022/12/28 05:17:14;;;;;;;32.78;13.82;;;7.40;99.90;;;;;;4987544;28;20137;-72
2022/12/28 05:19:39;;;;;;;29.77;13.48;;;7.30;99.90;;;;;;4989101;28;20556;-67
2022/12/28 05:22:10;;;;;;;29.42;13.98;;;7.40;99.90;;;;;;4988215;28;20137;-66
2022/12/28 05:24:37;;;;;;;31.30;14.45;;;7.40;99.90;;;;;;4987295;28;20080;-67
2022/12/28 05:27:02;;;;;;;28.33;12.88;;;7.30;99.90;;;;;;4988933;28;20065;-65
2022/12/28 05:29:28;;;;;;;31.00;13.90;;;7.40;99.90;;;;;;4973319;28;20615;-65
2022/12/28 05:31:53;;;;;;;31.83;14.20;;;7.40;99.90;;;;;;4985536;28;20807;-68
2022/12/28 05:34:19;;;;;;;26.98;13.30;;;7.40;99.90;;;;;;4988095;28;20392;-67
2022/12/28 05:36:44;;;;;;;30.35;14.27;;;7.50;99.90;;;;;;4984747;28;20084;-69
2022/12/28 05:39:10;;;;;;;34.38;14.90;;;7.50;99.90;;;;;;4986721;28;20133;-66
2022/12/28 05:41:36;;;;;;;33.90;15.02;;;7.50;99.90;;;;;;4987095;28;20416;-71
2022/12/28 05:44:01;;;;;;;29.52;14.05;;;7.50;99.90;;;;;;4989856;28;20030;-68
2022/12/28 05:46:32;;;;;;;35.10;15.38;;;7.60;99.90;;;;;;4992166;28;20050;-68
2022/12/28 05:48:58;;;;;;;31.38;14.45;;;7.60;99.90;;;;;;4987221;28;20053;-68
2022/12/28 05:51:26;;;;;;;33.33;15.57;;;7.70;99.90;;;;;;4994815;28;20325;-67
2022/12/28 05:53:52;;;;;;;34.95;15.50;;;7.70;99.90;;;;;;4995792;28;20099;-66
2022/12/28 05:56:23;;;;;;;36.63;15.82;;;7.80;99.90;;;;;;5011543;28;20335;-67
2022/12/28 05:59:00;;;;;;;35.10;15.88;;;7.70;99.90;;;;;;4988052;28;20120;-68
2022/12/28 06:01:29;;;;;;;35.70;15.68;;;7.70;99.90;;;;;;5008295;28;20041;-67
2022/12/28 06:04:03;;;;;;;40.13;16.65;;;7.80;99.90;;;;;;4993927;28;20466;-66
2022/12/28 06:06:30;;;;;;;33.22;15.50;;;7.80;99.90;;;;;;4995348;28;20123;-71
2022/12/28 06:08:56;;;;;;;35.20;15.48;;;7.80;99.90;;;;;;4994311;28;20046;-68
2022/12/28 06:11:24;;;;;;;33.08;14.93;;;7.80;99.90;;;;;;5000151;28;20459;-66
2022/12/28 06:13:50;;;;;;;35.17;16.00;;;7.80;99.90;;;;;;4991131;28;20045;-70
2022/12/28 06:16:22;;;;;;;34.47;15.98;;;7.80;99.90;;;;;;4992532;28;20042;-68
2022/12/28 06:18:48;;;;;;;38.30;15.98;;;8.00;99.90;;;;;;4991005;28;20149;-68
2022/12/28 06:21:17;;;;;;;34.97;16.30;;;8.00;99.90;;;;;;5006715;28;20038;-67
2022/12/28 06:23:44;;;;;;;32.30;15.35;;;8.00;99.90;;;;;;4990971;28;20538;-68
2022/12/28 06:26:15;;;;;;;35.17;16.17;;;7.90;99.90;;;;;;4992198;28;20049;-68
2022/12/28 06:28:41;;;;;;;34.25;15.90;;;7.90;99.90;;;;;;4988944;28;20077;-66
2022/12/28 06:31:06;;;;;;;42.70;17.45;;;8.00;99.90;;;;;;4989369;28;20611;-66
2022/12/28 06:33:33;;;;;;;42.42;16.85;;;8.00;99.90;;;;;;4990817;28;20137;-68
2022/12/28 06:35:58;;;;;;;34.65;16.55;;;8.10;99.90;;;;;;4990054;28;20045;-67
2022/12/28 06:38:26;;;;;;;39.15;16.30;;;8.10;99.90;;;;;;4990542;28;20042;-68
2022/12/28 06:40:52;;;;;;;38.45;18.98;;;8.00;99.90;;;;;;4992778;28;20054;-66
2022/12/28 06:43:17;;;;;;;42.80;19.13;;;8.10;99.90;;;;;;4989893;28;20152;-66
2022/12/28 06:45:52;;;;;;;38.42;17.20;;;8.00;99.90;;;;;;4991084;28;20033;-66
2022/12/28 06:48:18;;;;;;;35.78;17.00;;;8.10;99.90;;;;;;4991599;28;20046;-63
2022/12/28 06:50:52;;;;;;;40.10;17.67;;;8.10;99.90;;;;;;4992069;28;20061;-65
2022/12/28 06:53:18;;;;;;;40.20;16.63;;;8.10;99.90;;;;;;4985907;28;20132;-67
2022/12/28 06:55:52;;;;;;;32.35;16.40;;;8.20;99.90;;;;;;5006903;28;20148;-66
2022/12/28 06:58:17;;;;;;;37.78;16.80;;;8.20;99.90;;;;;;5007320;28;20045;-65
2022/12/28 07:00:43;;;;;;;36.90;16.15;;;8.20;99.90;;;;;;4989987;28;20053;-66
2022/12/28 07:03:08;;;;;;;39.30;17.73;;;8.10;99.90;;;;;;4989296;28;20061;-68
2022/12/28 07:05:34;;;;;;;36.50;16.77;;;8.10;99.90;;;;;;4990110;28;20054;-66
2022/12/28 07:07:59;;;;;;;38.38;17.70;;;8.20;99.90;;;;;;4988056;28;20476;-66
2022/12/28 07:10:25;;;;;;;37.28;16.65;;;8.20;99.90;;;;;;4990322;28;20531;-68
2022/12/28 07:12:50;;;;;;;38.10;17.52;;;8.30;99.90;;;;;;4989790;28;20041;-65
2022/12/28 07:15:16;;;;;;;37.30;17.02;;;8.30;99.90;;;;;;4991746;28;20041;-68
2022/12/28 07:17:41;;;;;;;38.97;16.40;;;8.30;99.90;;;;;;4989460;28;20109;-69
2022/12/28 07:20:08;;;;;;;36.40;17.02;;;8.20;99.90;;;;;;4989778;28;20132;-66
2022/12/28 07:22:33;;;;;;;37.67;16.85;;;8.30;99.90;;;;;;4989509;28;20026;-66
2022/12/28 07:24:59;;;;;;;38.75;16.92;;;8.30;99.90;;;;;;4989397;28;20105;-66
2022/12/28 07:27:24;;;;;;;34.00;15.93;;;8.40;99.90;;;;;;4989638;28;20044;-67
2022/12/28 07:29:50;;;;;;;35.00;16.25;;;8.30;99.90;;;;;;4989483;28;20128;-64
2022/12/28 07:32:15;;;;;;;36.10;17.27;;;8.40;99.90;;;;;;4987396;28;20033;-65
2022/12/28 07:34:41;;;;;;;31.48;16.23;;;8.30;99.90;;;;;;4986177;28;20065;-65
2022/12/28 07:37:06;;;;;;;39.90;16.63;;;8.50;99.90;;;;;;4989569;28;20056;-68
2022/12/28 07:39:33;;;;;;;40.45;16.75;;;8.50;99.90;;;;;;4985373;28;20034;-67
2022/12/28 07:41:59;;;;;;;40.33;16.48;;;8.40;99.90;;;;;;5008170;28;20083;-67
2022/12/28 07:44:24;;;;;;;32.47;15.90;;;8.40;99.90;;;;;;4989230;28;20034;-65
2022/12/28 07:46:50;;;;;;;37.70;17.08;;;8.50;99.90;;;;;;4990188;28;20060;-65
2022/12/28 07:49:16;;;;;;;34.70;15.82;;;8.40;99.90;;;;;;4988208;28;20042;-67
2022/12/28 07:51:41;;;;;;;31.77;15.48;;;8.40;99.90;;;;;;5004694;28;20052;-65
2022/12/28 07:54:07;;;;;;;35.47;15.75;;;8.50;99.90;;;;;;4989469;28;20125;-68
2022/12/28 07:56:33;;;;;;;32.58;15.88;;;8.50;99.90;;;;;;4988442;28;20136;-65
2022/12/28 07:59:01;;;;;;;37.60;16.42;;;8.50;99.90;;;;;;4986272;28;20057;-66
2022/12/28 08:01:30;;;;;;;34.75;14.93;;;8.50;99.90;;;;;;5003295;28;20377;-64
2022/12/28 08:04:04;;;;;;;34.97;16.67;;;8.50;99.90;;;;;;5004917;28;20485;-66
2022/12/28 08:06:33;;;;;;;32.85;14.95;;;8.60;99.90;;;;;;4984913;28;20144;-67
2022/12/28 08:09:00;;;;;;;34.25;15.93;;;8.50;99.90;;;;;;5003375;28;20485;-64
2022/12/28 08:11:28;;;;;;;34.03;14.77;;;8.50;99.90;;;;;;4987687;28;20041;-66
2022/12/28 08:13:55;;;;;;;29.52;14.50;;;8.50;99.90;;;;;;4988055;28;20038;-66
2022/12/28 08:16:23;;;;;;;31.65;15.60;;;8.60;99.90;;;;;;4987812;28;20125;-65
2022/12/28 08:18:49;;;;;;;33.30;15.05;;;8.60;99.90;;;;;;5005443;28;20404;-65
2022/12/28 08:21:31;;;;;;;37.70;15.80;;;8.60;99.90;;;;;;4987725;28;20076;-62
2022/12/28 08:23:58;;;;;;;31.88;13.95;;;8.60;99.90;;;;;;4989275;28;20038;-67
2022/12/28 08:26:23;;;;;;;25.77;12.63;;;8.60;99.90;;;;;;4988341;28;20045;-63
2022/12/28 08:28:51;;;;;;;31.27;14.13;;;8.60;99.90;;;;;;4984645;28;20053;-67
2022/12/28 08:31:21;;;;;;;29.50;13.18;;;8.50;99.90;;;;;;4984815;28;20381;-62
2022/12/28 08:33:47;;;;;;;30.50;13.27;;;8.50;99.90;;;;;;4988791;28;20053;-68
2022/12/28 08:36:14;;;;;;;32.70;13.98;;;8.50;99.90;;;;;;4983807;28;20034;-68
2022/12/28 08:38:41;;;;;;;33.05;13.55;;;8.60;99.90;;;;;;4989386;28;20081;-69
2022/12/28 08:41:10;;;;;;;27.00;12.48;;;8.60;99.90;;;;;;4984341;28;20042;-69
2022/12/28 08:43:35;;;;;;;26.67;11.98;;;8.60;99.90;;;;;;4988242;28;20046;-67
2022/12/28 08:46:16;;;;;;;28.25;11.00;;;8.60;99.90;;;;;;4986549;28;20041;-66
2022/12/28 08:48:42;;;;;;;26.50;11.75;;;8.60;99.90;;;;;;5003937;28;20165;-65
2022/12/28 08:51:10;;;;;;;26.63;11.95;;;8.60;99.90;;;;;;4987592;28;20046;-69
2022/12/28 08:53:36;;;;;;;20.95;10.63;;;8.70;99.90;;;;;;4988327;28;20042;-67
2022/12/28 08:56:03;;;;;;;25.40;10.80;;;8.80;99.90;;;;;;4986018;28;20053;-66
2022/12/28 08:58:28;;;;;;;25.90;11.35;;;8.80;99.90;;;;;;4990366;28;20042;-70
2022/12/28 09:00:54;;;;;;;23.60;11.00;;;8.80;99.90;;;;;;4990995;28;20038;-65
2022/12/28 09:03:20;;;;;;;23.13;10.65;;;8.80;99.90;;;;;;4986223;28;20042;-66
2022/12/28 09:05:45;;;;;;;24.75;11.88;;;8.90;99.90;;;;;;4988883;28;20723;-64
2022/12/28 09:08:11;;;;;;;23.17;11.02;;;8.90;99.90;;;;;;4975107;28;20069;-66
2022/12/28 09:10:36;;;;;;;22.60;10.90;;;8.80;99.90;;;;;;4984948;28;20133;-65
2022/12/28 09:13:02;;;;;;;21.27;10.88;;;8.90;99.90;;;;;;4991895;28;20045;-65
2022/12/28 09:15:27;;;;;;;22.40;10.80;;;9.00;99.90;;;;;;4989797;28;20049;-67
2022/12/28 09:17:53;;;;;;;18.40;9.45;;;9.00;99.90;;;;;;4991445;28;20042;-67
2022/12/28 09:20:19;;;;;;;22.25;10.63;;;9.00;99.90;;;;;;4989085;28;20088;-65
2022/12/28 09:22:44;;;;;;;26.98;11.35;;;8.90;99.90;;;;;;4991310;28;20432;-67
2022/12/28 09:25:10;;;;;;;23.05;11.65;;;9.00;99.90;;;;;;4990096;28;20046;-67
2022/12/28 09:27:35;;;;;;;25.92;12.50;;;9.00;99.90;;;;;;5003335;28;20095;-66
2022/12/28 09:30:02;;;;;;;26.98;11.70;;;9.10;99.90;;;;;;4992017;28;20038;-65
2022/12/28 09:32:27;;;;;;;26.17;12.38;;;9.10;99.90;;;;;;4989782;28;20042;-67
2022/12/28 09:34:53;;;;;;;26.33;13.43;;;9.00;99.90;;;;;;4997136;28;20060;-65
2022/12/28 09:37:19;;;;;;;26.27;11.85;;;9.00;99.90;;;;;;4994736;28;20081;-66
2022/12/28 09:39:44;;;;;;;27.08;12.18;;;9.00;99.90;;;;;;4976627;28;20038;-67
2022/12/28 09:42:15;;;;;;;29.60;12.50;;;9.00;99.90;;;;;;4991508;28;20048;-72
2022/12/28 09:44:59;;;;;;;26.52;11.98;;;9.00;99.90;;;;;;5012358;28;20038;-67
2022/12/28 09:47:31;;;;;;;27.92;12.48;;;9.00;99.90;;;;;;4991921;28;20389;-67
2022/12/28 09:50:12;;;;;;;27.10;11.80;;;9.00;99.90;;;;;;5012582;28;20399;-68
2022/12/28 09:52:47;;;;;;;28.80;12.25;;;9.10;99.90;;;;;;5004817;28;20128;-65
2022/12/28 09:55:16;;;;;;;30.15;12.82;;;9.10;99.90;;;;;;4992863;28;20052;-64
2022/12/28 09:57:45;;;;;;;27.52;11.90;;;9.10;99.90;;;;;;4994490;28;20033;-67
2022/12/28 10:00:18;;;;;;;27.63;12.23;;;9.00;99.90;;;;;;4997306;28;20099;-69
2022/12/28 10:02:59;;;;;;;29.73;12.70;;;9.10;99.90;;;;;;4993550;28;20077;-68
2022/12/28 10:05:26;;;;;;;25.67;11.40;;;9.00;99.90;;;;;;4993333;28;20057;-70
2022/12/28 10:07:53;;;;;;;28.92;12.30;;;9.10;99.90;;;;;;5011829;28;20488;-65
2022/12/28 10:10:22;;;;;;;23.58;11.38;;;9.10;99.90;;;;;;4995060;28;20072;-67
2022/12/28 10:12:49;;;;;;;25.35;11.57;;;9.10;99.90;;;;;;4994542;28;20464;-65
2022/12/28 10:15:16;;;;;;;27.60;12.98;;;9.10;99.90;;;;;;4994770;28;20046;-67
2022/12/28 10:17:42;;;;;;;27.73;12.70;;;9.10;99.90;;;;;;4994810;28;20082;-68
2022/12/28 10:20:18;;;;;;;25.80;12.05;;;9.20;99.90;;;;;;4991157;28;20076;-66
2022/12/28 10:22:48;;;;;;;24.35;12.13;;;9.20;99.90;;;;;;4994078;28;20129;-64
2022/12/28 10:25:16;;;;;;;26.42;11.80;;;9.00;99.90;;;;;;4994526;28;20029;-66
2022/12/28 10:27:42;;;;;;;25.50;12.02;;;9.20;99.90;;;;;;4994473;28;20049;-65
2022/12/28 10:30:25;;;;;;;26.77;12.30;;;9.20;99.90;;;;;;4992305;28;20354;-67
2022/12/28 10:32:55;;;;;;;25.05;11.48;;;9.20;99.90;;;;;;5010559;28;20096;-65
2022/12/28 10:35:27;;;;;;;27.02;11.52;;;9.10;99.90;;;;;;4993089;28;20099;-67
2022/12/28 10:38:04;;;;;;;26.33;11.07;;;9.10;99.90;;;;;;4989962;28;20042;-66
2022/12/28 10:40:33;;;;;;;22.88;10.15;;;9.20;99.90;;;;;;5002037;28;20389;-66
2022/12/28 10:42:59;;;;;;;27.33;10.85;;;9.20;99.90;;;;;;4987799;28;20033;-66
2022/12/28 10:45:54;;;;;;;26.58;11.18;;;9.10;99.90;;;;;;4991464;28;20477;-66
2022/12/28 10:48:30;;;;;;;24.85;11.27;;;9.20;99.90;;;;;;4982541;28;20463;-66
2022/12/28 10:50:59;;;;;;;24.98;10.82;;;9.20;99.90;;;;;;5009627;28;20092;-66
2022/12/28 10:53:30;;;;;;;22.77;10.48;;;9.10;99.90;;;;;;4993262;28;20045;-67
2022/12/28 10:56:18;;;;;;;22.80;8.93;;;9.10;99.90;;;;;;4992376;28;20136;-67
2022/12/28 10:58:45;;;;;;;19.17;8.73;;;9.10;99.90;;;;;;4990939;28;20050;-64
2022/12/28 11:01:11;;;;;;;18.17;8.95;;;9.20;99.90;;;;;;4989655;28;20045;-65
2022/12/28 11:03:39;;;;;;;20.27;9.02;;;9.10;99.90;;;;;;4993009;28;20045;-64
2022/12/28 11:06:17;;;;;;;18.50;8.95;;;9.10;99.90;;;;;;4990476;28;20042;-67
2022/12/28 11:08:45;;;;;;;18.10;8.32;;;9.10;99.90;;;;;;4980831;28;20144;-70
2022/12/28 11:11:21;;;;;;;20.27;9.07;;;9.20;99.90;;;;;;5004647;28;20034;-66
2022/12/28 11:14:16;;;;;;;18.40;8.55;;;9.20;99.90;;;;;;4988919;28;20065;-66
2022/12/28 11:16:42;;;;;;;22.08;9.10;;;9.10;99.90;;;;;;4974418;28;20050;-66
2022/12/28 11:19:08;;;;;;;17.75;8.38;;;9.20;99.90;;;;;;5003517;28;20104;-65
2022/12/28 11:21:35;;;;;;;18.80;9.23;;;9.10;99.90;;;;;;4988631;28;20390;-66
2022/12/28 11:24:01;;;;;;;19.33;8.52;;;9.20;99.90;;;;;;4986678;28;20429;-68
2022/12/28 11:26:28;;;;;;;22.58;9.13;;;9.20;99.90;;;;;;4987491;28;20255;-73
2022/12/28 11:28:54;;;;;;;18.08;8.65;;;9.20;99.90;;;;;;5004365;28;20492;-68
2022/12/28 11:31:28;;;;;;;16.90;8.25;;;9.20;99.90;;;;;;4989425;28;20095;-67
2022/12/28 11:33:58;;;;;;;19.08;8.55;;;9.30;99.90;;;;;;5011028;28;20232;-67
2022/12/28 11:36:26;;;;;;;18.25;8.48;;;9.20;99.90;;;;;;4988468;28;20618;-64
2022/12/28 11:38:55;;;;;;;15.70;7.72;;;9.30;99.90;;;;;;4987904;28;20034;-66
2022/12/28 11:41:23;;;;;;;18.35;8.57;;;9.30;99.90;;;;;;4984901;28;20092;-65
2022/12/28 11:43:54;;;;;;;15.50;7.95;;;9.30;99.90;;;;;;4995018;28;20042;-65
2022/12/28 11:46:19;;;;;;;17.83;8.32;;;9.20;99.90;;;;;;4990176;28;20030;-64
2022/12/28 11:48:53;;;;;;;18.25;8.88;;;9.30;99.90;;;;;;4992787;28;20140;-65
2022/12/28 11:51:22;;;;;;;19.88;8.75;;;9.30;99.90;;;;;;4987680;28;20496;-67
2022/12/28 11:53:57;;;;;;;17.25;8.50;;;9.30;99.90;;;;;;5000544;28;20046;-71
2022/12/28 11:56:46;;;;;;;18.02;8.63;;;9.20;99.90;;;;;;4986000;28;20137;-66
2022/12/28 11:59:47;;;;;;;18.02;8.05;;;9.20;99.90;;;;;;4979652;28;20145;-66
2022/12/28 12:02:18;;;;;;;18.55;8.88;;;9.20;99.90;;;;;;4950734;28;20430;-64
2022/12/28 12:04:45;;;;;;;19.08;9.30;;;9.20;99.90;;;;;;4980748;28;20068;-67
2022/12/28 12:07:15;;;;;;;17.63;8.38;;;9.20;99.90;;;;;;5007044;28;20381;-66
2022/12/28 12:09:44;;;;;;;19.42;8.75;;;9.20;99.90;;;;;;4989859;28;21659;-65
2022/12/28 12:12:12;;;;;;;17.70;8.57;;;9.10;99.90;;;;;;4988617;28;20125;-65
2022/12/28 12:14:47;;;;;;;18.63;8.32;;;9.10;99.90;;;;;;4985109;28;20085;-65
2022/12/28 12:17:15;;;;;;;15.52;7.40;;;9.20;99.90;;;;;;4991364;28;20042;-67
2022/12/28 12:19:47;;;;;;;19.27;8.50;;;9.20;99.90;;;;;;4992541;28;20042;-65
2022/12/28 12:22:30;;;;;;;15.23;7.28;;;9.10;99.90;;;;;;4988669;28;20042;-66
2022/12/28 12:25:14;;;;;;;15.57;7.75;;;9.20;99.90;;;;;;4991867;28;20037;-68
2022/12/28 12:28:00;;;;;;;13.00;6.93;;;9.20;99.90;;;;;;4999572;28;20416;-66
2022/12/28 12:30:28;;;;;;;12.57;6.57;;;9.20;99.90;;;;;;4982888;28;20476;-68
2022/12/28 12:33:02;;;;;;;13.20;6.75;;;9.20;99.90;;;;;;5010295;28;20068;-67
2022/12/28 12:35:32;;;;;;;12.68;6.43;;;9.10;99.90;;;;;;5004443;28;20141;-67
2022/12/28 12:38:24;;;;;;;12.55;6.30;;;9.10;99.90;;;;;;4991909;28;20068;-66
2022/12/28 12:41:07;;;;;;;15.02;6.55;;;9.10;99.90;;;;;;4987115;28;20400;-67
2022/12/28 12:44:16;;;;;;;11.18;5.70;;;9.20;99.90;;;;;;4990082;28;20048;-64
2022/12/28 12:47:27;;;;;;;12.07;6.00;;;9.20;99.90;;;;;;5001857;28;20562;-68
2022/12/28 12:50:24;;;;;;;10.60;5.43;;;9.10;99.90;;;;;;4987839;28;20050;-68
2022/12/28 12:53:04;;;;;;;8.70;5.13;;;9.20;99.90;;;;;;4990412;28;20041;-68
2022/12/28 12:55:58;;;;;;;9.35;4.85;;;9.20;99.90;;;;;;4990726;28;20148;-65
2022/12/28 12:58:45;;;;;;;11.10;4.95;;;9.10;99.90;;;;;;4973410;28;20081;-69
2022/12/28 13:01:38;;;;;;;10.73;4.82;;;9.10;99.90;;;;;;4987965;28;20065;-70
2022/12/28 13:04:16;;;;;;;8.95;4.57;;;9.20;99.90;;;;;;5012092;28;20061;-68
2022/12/28 13:06:42;;;;;;;9.50;5.25;;;9.10;99.90;;;;;;4990838;28;20038;-65
2022/12/28 13:09:15;;;;;;;10.95;4.60;;;9.10;99.90;;;;;;5009288;28;20107;-67
2022/12/28 13:11:41;;;;;;;9.07;4.88;;;9.00;99.90;;;;;;4997059;28;20068;-65
2022/12/28 13:14:19;;;;;;;8.57;4.70;;;9.10;99.90;;;;;;5006100;28;20125;-69
2022/12/28 13:16:48;;;;;;;9.05;4.80;;;9.20;99.90;;;;;;4991137;28;20120;-68
2022/12/28 13:19:22;;;;;;;12.73;5.50;;;9.10;99.90;;;;;;5004075;28;20508;-67
2022/12/28 13:21:49;;;;;;;9.25;5.03;;;9.20;99.90;;;;;;4998559;28;20057;-66